Terminal Aerodrome Forecast
Issued by NWS

Home | Current Version | Previous Version | Text Only | Print | Product List | Glossary On
Versions: 1 2 3 4 5 6 7 8 9 10 11 12 13 14 15 16 17
000
FTUS41 KPBZ 211700
TAFHLG
TAF
KHLG 211724Z 2118/2218 00000KT P6SM BKN025
     FM212000 00000KT P6SM SCT030 SCT250
     FM221400 12006KT P6SM BKN035 BKN250=

USA.gov is the U.S. government's official web portal to all federal, state and local government web resources and services.